createdAt,value
2022-11-24T00:01:31.790Z,4.70
2022-11-24T00:04:01.841Z,4.82
2022-11-24T00:06:30.748Z,5.22
2022-11-24T00:09:01.652Z,5.30
2022-11-24T00:11:31.780Z,5.00
2022-11-24T00:13:59.521Z,5.38
2022-11-24T00:16:29.092Z,6.20
2022-11-24T00:18:57.979Z,5.43
2022-11-24T00:21:26.757Z,4.93
2022-11-24T00:23:54.500Z,5.60
2022-11-24T00:26:39.610Z,5.68
2022-11-24T00:29:07.794Z,4.97
2022-11-24T00:31:37.667Z,4.97
2022-11-24T00:34:07.942Z,6.25
2022-11-24T00:36:35.765Z,5.32
2022-11-24T00:39:06.055Z,5.68
2022-11-24T00:41:33.937Z,6.38
2022-11-24T00:44:01.298Z,5.95
2022-11-24T00:46:28.573Z,4.88
2022-11-24T00:48:56.362Z,5.32
2022-11-24T00:51:27.153Z,5.78
2022-11-24T00:53:56.294Z,5.53
2022-11-24T00:56:24.820Z,5.78
2022-11-24T00:58:52.904Z,6.38
2022-11-24T01:01:23.383Z,5.18
2022-11-24T01:03:51.465Z,5.68
2022-11-24T01:06:21.960Z,4.60
2022-11-24T01:08:49.287Z,5.15
2022-11-24T01:11:19.706Z,5.90
2022-11-24T01:13:49.552Z,5.50
2022-11-24T01:16:29.061Z,5.35
2022-11-24T01:18:56.278Z,4.80
2022-11-24T01:21:23.593Z,5.03
2022-11-24T01:23:50.764Z,5.78
2022-11-24T01:26:22.037Z,5.47
2022-11-24T01:28:56.694Z,4.47
2022-11-24T01:31:25.413Z,4.60
2022-11-24T01:33:53.291Z,3.75
2022-11-24T01:36:21.122Z,4.90
2022-11-24T01:38:48.445Z,4.65
2022-11-24T01:41:18.836Z,5.28
2022-11-24T01:43:47.631Z,4.20
2022-11-24T01:46:29.691Z,4.10
2022-11-24T01:49:11.630Z,4.28
2022-11-24T01:51:52.402Z,4.25
2022-11-24T01:54:28.428Z,3.90
2022-11-24T01:57:00.601Z,4.30
2022-11-24T01:59:28.258Z,4.38
2022-11-24T02:01:56.926Z,3.92
2022-11-24T02:04:29.721Z,4.70
2022-11-24T02:06:59.129Z,4.28
2022-11-24T02:09:37.445Z,4.88
2022-11-24T02:12:06.009Z,4.03
2022-11-24T02:14:35.287Z,4.07
2022-11-24T02:17:02.641Z,4.38
2022-11-24T02:19:48.674Z,4.22
2022-11-24T02:22:30.000Z,3.95
2022-11-24T02:25:16.807Z,4.20
2022-11-24T02:27:49.390Z,4.40
2022-11-24T02:30:19.465Z,4.45
2022-11-24T02:32:46.581Z,4.68
2022-11-24T02:35:14.023Z,4.57
2022-11-24T02:37:41.193Z,4.65
2022-11-24T02:40:08.966Z,5.40
2022-11-24T02:42:42.756Z,5.35
2022-11-24T02:47:38.317Z,5.70
2022-11-24T02:50:05.952Z,5.55
2022-11-24T02:52:33.052Z,6.03
2022-11-24T02:55:00.137Z,6.38
2022-11-24T02:57:27.276Z,6.10
2022-11-24T02:59:54.365Z,7.20
2022-11-24T03:02:21.716Z,7.50
2022-11-24T03:04:48.848Z,8.07
2022-11-24T03:07:16.082Z,7.28
2022-11-24T03:09:43.201Z,6.88
2022-11-24T03:12:10.388Z,7.38
2022-11-24T03:14:37.580Z,8.50
2022-11-24T03:17:04.745Z,7.72
2022-11-24T03:19:31.824Z,7.80
2022-11-24T03:21:59.513Z,8.23
2022-11-24T03:24:26.694Z,7.38
2022-11-24T03:26:53.890Z,9.70
2022-11-24T03:29:21.224Z,9.05
2022-11-24T03:31:48.283Z,10.02
2022-11-24T03:34:15.435Z,9.57
2022-11-24T03:36:42.546Z,10.50
2022-11-24T03:39:09.828Z,10.00
2022-11-24T03:41:36.905Z,9.18
2022-11-24T03:44:04.225Z,10.00
2022-11-24T03:46:31.391Z,8.27
2022-11-24T03:48:58.533Z,8.13
2022-11-24T03:51:25.601Z,11.77
2022-11-24T03:53:52.687Z,8.50
2022-11-24T03:56:20.547Z,8.85
2022-11-24T03:58:47.646Z,8.80
2022-11-24T04:01:14.803Z,9.35
2022-11-24T04:03:41.948Z,7.70
2022-11-24T04:06:09.108Z,7.57
2022-11-24T04:08:36.166Z,8.27
2022-11-24T04:11:03.522Z,8.15
2022-11-24T04:13:30.628Z,8.95
2022-11-24T04:15:57.793Z,9.25
2022-11-24T04:18:24.976Z,8.90
2022-11-24T04:20:52.337Z,8.95
2022-11-24T04:23:19.902Z,8.48
2022-11-24T04:25:47.262Z,8.15
2022-11-24T04:28:14.595Z,8.68
2022-11-24T04:30:44.628Z,10.07
2022-11-24T04:33:13.094Z,9.52
2022-11-24T04:35:40.245Z,9.20
2022-11-24T04:38:07.326Z,9.48
2022-11-24T04:40:34.761Z,9.15
2022-11-24T04:43:01.864Z,10.20
2022-11-24T04:45:28.947Z,9.77
2022-11-24T04:47:56.086Z,10.93
2022-11-24T04:50:23.280Z,16.10
2022-11-24T04:52:50.466Z,11.77
2022-11-24T04:55:17.684Z,11.07
2022-11-24T04:57:44.762Z,10.63
2022-11-24T05:00:12.509Z,11.80
2022-11-24T05:02:39.817Z,10.85
2022-11-24T05:05:07.536Z,10.32
2022-11-24T05:07:35.020Z,12.05
2022-11-24T05:10:21.053Z,10.77
2022-11-24T05:12:56.144Z,10.90
2022-11-24T05:15:23.629Z,11.63
2022-11-24T05:17:50.767Z,10.05
2022-11-24T05:20:18.239Z,10.13
2022-11-24T05:22:45.477Z,10.13
2022-11-24T05:25:12.927Z,10.65
2022-11-24T05:27:40.537Z,10.95
2022-11-24T05:30:08.747Z,9.32
2022-11-24T05:32:35.862Z,8.50
2022-11-24T05:35:05.408Z,7.78
2022-11-24T05:37:32.497Z,8.50
2022-11-24T05:39:59.708Z,7.22
2022-11-24T05:42:46.529Z,7.47
2022-11-24T05:45:20.101Z,6.30
2022-11-24T05:47:48.026Z,6.20
2022-11-24T05:50:17.006Z,5.90
2022-11-24T05:52:44.730Z,7.53
2022-11-24T05:55:12.389Z,6.10
2022-11-24T05:57:39.528Z,5.60
2022-11-24T06:00:08.773Z,7.07
2022-11-24T06:02:41.724Z,6.43
2022-11-24T06:05:09.333Z,5.78
2022-11-24T06:07:36.543Z,5.55
2022-11-24T06:10:04.531Z,5.65
2022-11-24T06:12:31.686Z,5.68
2022-11-24T06:14:58.752Z,7.03
2022-11-24T06:17:25.928Z,5.45
2022-11-24T06:19:53.083Z,5.30
2022-11-24T06:22:20.336Z,6.45
2022-11-24T06:24:47.475Z,4.28
2022-11-24T06:27:14.575Z,3.65
2022-11-24T06:29:42.241Z,4.03
2022-11-24T06:32:09.527Z,3.72
2022-11-24T06:34:36.968Z,3.70
2022-11-24T06:37:04.316Z,4.32
2022-11-24T06:39:31.412Z,3.67
2022-11-24T06:41:58.594Z,3.63
2022-11-24T06:44:25.868Z,5.05
2022-11-24T06:46:53.228Z,4.57
2022-11-24T06:49:20.345Z,3.83
2022-11-24T06:51:47.542Z,4.10
2022-11-24T06:54:16.444Z,3.90
2022-11-24T06:56:43.570Z,4.10
2022-11-24T06:59:17.799Z,3.55
2022-11-24T07:01:45.030Z,3.80
2022-11-24T07:04:12.682Z,3.38
2022-11-24T07:06:42.419Z,2.90
2022-11-24T07:09:11.292Z,3.45
2022-11-24T07:11:39.235Z,3.25
2022-11-24T07:14:06.396Z,3.05
2022-11-24T07:16:33.890Z,3.25
2022-11-24T07:19:01.101Z,2.95
2022-11-24T07:21:29.191Z,2.80
2022-11-24T07:23:57.317Z,2.33
2022-11-24T07:26:24.945Z,2.72
2022-11-24T07:28:52.316Z,2.30
2022-11-24T07:31:21.427Z,2.83
2022-11-24T07:33:50.147Z,2.65
2022-11-24T07:36:17.927Z,3.38
2022-11-24T07:38:45.228Z,2.13
2022-11-24T07:41:13.944Z,2.55
2022-11-24T07:43:41.240Z,2.72
2022-11-24T07:46:14.532Z,2.08
2022-11-24T07:48:41.792Z,2.45
2022-11-24T07:51:09.671Z,2.53
2022-11-24T07:53:37.812Z,1.75
2022-11-24T07:56:06.326Z,1.90
2022-11-24T07:58:35.953Z,2.13
2022-11-24T08:01:15.047Z,2.80
2022-11-24T08:03:43.404Z,2.05
2022-11-24T08:06:32.241Z,2.38
2022-11-24T08:08:58.635Z,2.10
2022-11-24T08:11:26.634Z,1.77
2022-11-24T08:13:53.760Z,2.10
2022-11-24T08:16:21.050Z,2.17
2022-11-24T08:18:53.302Z,1.83
2022-11-24T08:21:23.050Z,2.30
2022-11-24T08:23:54.198Z,2.70
2022-11-24T08:26:21.405Z,2.70
2022-11-24T08:28:54.315Z,2.40
2022-11-24T08:31:21.516Z,2.93
2022-11-24T08:33:48.753Z,2.50
2022-11-24T08:36:18.049Z,2.90
2022-11-24T08:38:45.426Z,3.45
2022-11-24T08:41:14.832Z,3.25
2022-11-24T08:43:42.257Z,3.75
2022-11-24T08:46:12.371Z,3.83
2022-11-24T08:48:39.607Z,3.40
2022-11-24T08:51:08.666Z,3.95
2022-11-24T08:53:35.932Z,3.47
2022-11-24T08:56:03.895Z,2.90
2022-11-24T08:58:31.661Z,2.92
2022-11-24T09:01:25.717Z,4.57
2022-11-24T09:03:53.453Z,3.55
2022-11-24T09:06:24.807Z,2.75
2022-11-24T09:08:54.171Z,3.10
2022-11-24T09:11:22.319Z,3.13
2022-11-24T09:13:49.974Z,3.30
2022-11-24T09:16:22.955Z,3.22
2022-11-24T09:19:01.098Z,3.00
2022-11-24T09:21:29.663Z,3.70
2022-11-24T09:23:57.387Z,4.50
2022-11-24T09:26:27.600Z,5.25
2022-11-24T09:28:56.415Z,5.22
2022-11-24T09:31:26.148Z,6.07
2022-11-24T09:33:54.329Z,7.00
2022-11-24T09:36:22.289Z,6.03
2022-11-24T09:38:49.724Z,6.45
2022-11-24T09:41:19.626Z,7.38
2022-11-24T09:44:28.106Z,7.25
2022-11-24T09:47:03.964Z,7.43
2022-11-24T09:49:38.880Z,6.80
2022-11-24T09:52:12.871Z,8.02
2022-11-24T09:54:50.069Z,7.88
2022-11-24T09:57:20.057Z,7.75
2022-11-24T09:59:47.392Z,8.25
2022-11-24T10:02:32.292Z,8.23
2022-11-24T10:05:00.365Z,9.07
2022-11-24T10:07:33.661Z,7.68
2022-11-24T10:10:25.221Z,9.88
2022-11-24T10:13:05.866Z,7.65
2022-11-24T10:15:33.007Z,8.45
2022-11-24T10:18:21.249Z,7.95
2022-11-24T10:20:54.711Z,8.95
2022-11-24T10:23:37.000Z,8.63
2022-11-24T10:26:13.558Z,8.73
2022-11-24T10:28:52.858Z,8.85
2022-11-24T10:31:31.207Z,8.23
2022-11-24T10:34:03.813Z,8.40
2022-11-24T10:36:55.577Z,8.65
2022-11-24T10:40:00.717Z,7.82
2022-11-24T10:42:31.599Z,9.40
2022-11-24T10:45:01.341Z,7.80
2022-11-24T10:47:30.223Z,9.05
2022-11-24T10:50:04.384Z,9.15
2022-11-24T10:52:40.468Z,7.95
2022-11-24T10:55:08.021Z,8.50
2022-11-24T10:57:37.157Z,8.43
2022-11-24T11:00:19.448Z,8.25
2022-11-24T11:02:48.764Z,8.32
2022-11-24T11:05:27.181Z,8.13
2022-11-24T11:08:30.592Z,8.35
2022-11-24T11:11:13.040Z,8.55
2022-11-24T11:13:56.866Z,9.20
2022-11-24T11:16:30.196Z,9.35
2022-11-24T11:18:57.895Z,8.88
2022-11-24T11:21:39.158Z,8.95
2022-11-24T11:24:18.370Z,9.40
2022-11-24T11:26:45.598Z,9.63
2022-11-24T11:35:04.913Z,9.10
2022-11-24T11:37:33.324Z,8.93
2022-11-24T11:40:00.808Z,9.48
2022-11-24T11:43:07.777Z,10.00
2022-11-24T11:45:37.360Z,10.20
2022-11-24T11:48:04.541Z,9.48
2022-11-24T11:51:14.722Z,9.93
2022-11-24T11:54:05.927Z,10.10
2022-11-24T11:56:37.480Z,9.77
2022-11-24T11:59:26.213Z,11.07
2022-11-24T12:02:21.386Z,9.70
2022-11-24T12:04:58.714Z,9.90
2022-11-24T12:07:36.915Z,10.40
2022-11-24T12:10:30.140Z,10.68
2022-11-24T12:13:02.993Z,9.60
2022-11-24T12:16:05.262Z,9.75
2022-11-24T12:19:00.335Z,9.85
2022-11-24T12:21:43.492Z,10.13
2022-11-24T12:24:16.903Z,9.32
2022-11-24T12:26:49.105Z,10.95
2022-11-24T12:29:50.238Z,10.25
2022-11-24T12:32:23.037Z,9.65
2022-11-24T12:35:09.177Z,9.93
2022-11-24T12:37:51.672Z,10.52
2022-11-24T12:40:47.239Z,9.20
2022-11-24T12:43:14.523Z,9.07
2022-11-24T12:46:01.698Z,10.27
2022-11-24T12:48:34.620Z,9.40
2022-11-24T12:51:04.500Z,8.75
2022-11-24T12:53:37.392Z,9.52
2022-11-24T12:56:10.724Z,10.05
2022-11-24T12:59:00.294Z,9.32
2022-11-24T13:01:42.247Z,9.98
2022-11-24T13:04:32.726Z,9.73
2022-11-24T13:07:04.437Z,9.48
2022-11-24T13:09:31.741Z,10.13
2022-11-24T13:12:12.450Z,9.15
2022-11-24T13:14:43.574Z,9.57
2022-11-24T13:17:45.671Z,9.70
2022-11-24T13:20:23.559Z,9.60
2022-11-24T13:22:55.083Z,10.02
2022-11-24T13:25:35.620Z,9.50
2022-11-24T13:28:06.460Z,9.00
2022-11-24T13:30:33.477Z,8.75
2022-11-24T13:33:16.499Z,10.15
2022-11-24T13:36:25.142Z,10.02
2022-11-24T13:38:54.021Z,8.23
2022-11-24T13:41:33.281Z,9.15
2022-11-24T13:44:15.507Z,9.57
2022-11-24T13:47:05.191Z,9.43
2022-11-24T13:49:46.471Z,9.20
2022-11-24T13:53:08.998Z,8.80
2022-11-24T13:55:39.039Z,8.63
2022-11-24T13:58:09.172Z,8.43
2022-11-24T14:01:13.288Z,8.88
2022-11-24T14:03:55.449Z,8.73
2022-11-24T14:06:36.307Z,9.45
2022-11-24T14:09:17.025Z,10.43
2022-11-24T14:11:46.726Z,9.68
2022-11-24T14:14:21.742Z,8.95
2022-11-24T14:16:49.134Z,8.93
2022-11-24T14:19:19.663Z,8.93
2022-11-24T14:21:46.839Z,9.10
2022-11-24T14:24:38.081Z,8.90
2022-11-24T14:27:17.168Z,9.95
2022-11-24T14:29:55.629Z,9.02
2022-11-24T14:32:23.549Z,8.43
2022-11-24T14:34:52.136Z,9.70
2022-11-24T14:37:20.254Z,8.88
2022-11-24T14:39:47.507Z,10.05
2022-11-24T14:42:24.055Z,8.82
2022-11-24T14:44:59.764Z,9.05
2022-11-24T14:47:36.244Z,8.80
2022-11-24T14:50:15.917Z,10.00
2022-11-24T14:52:46.341Z,9.60
2022-11-24T14:55:27.308Z,10.23
2022-11-24T14:57:54.517Z,9.70
2022-11-24T15:00:24.709Z,9.15
2022-11-24T15:03:08.050Z,9.57
2022-11-24T15:05:54.586Z,8.55
2022-11-24T15:08:24.053Z,9.90
2022-11-24T15:10:57.964Z,9.18
2022-11-24T15:13:26.166Z,9.57
2022-11-24T15:16:02.091Z,8.80
2022-11-24T15:18:35.953Z,9.38
2022-11-24T15:21:03.649Z,10.48
2022-11-24T15:23:32.417Z,8.77
2022-11-24T15:26:02.248Z,10.40
2022-11-24T15:28:30.843Z,9.18
2022-11-24T15:31:03.099Z,9.32
2022-11-24T15:33:30.779Z,10.27
2022-11-24T15:35:57.965Z,10.25
2022-11-24T15:38:25.277Z,9.57
2022-11-24T15:40:55.224Z,9.40
2022-11-24T15:43:25.195Z,10.05
2022-11-24T15:45:52.349Z,10.63
2022-11-24T15:48:19.465Z,9.15
2022-11-24T15:50:47.601Z,10.20
2022-11-24T15:53:31.638Z,10.32
2022-11-24T15:58:26.662Z,11.45
2022-11-24T16:00:53.996Z,9.68
2022-11-24T16:06:15.014Z,11.35
2022-11-24T16:08:43.920Z,11.40
2022-11-24T16:11:11.005Z,11.07
2022-11-24T16:13:38.255Z,10.80
2022-11-24T16:16:06.319Z,11.35
2022-11-24T16:18:35.323Z,11.10
2022-11-24T16:21:02.413Z,11.63
2022-11-24T16:23:29.518Z,12.55
2022-11-24T16:25:56.612Z,11.00
2022-11-24T16:28:23.912Z,10.38
2022-11-24T16:30:51.137Z,10.98
2022-11-24T16:33:18.366Z,11.32
2022-11-24T16:35:48.558Z,12.05
2022-11-24T16:38:19.579Z,12.38
2022-11-24T16:40:54.531Z,12.30
2022-11-24T16:43:21.949Z,11.63
2022-11-24T16:46:18.290Z,12.77
2022-11-24T16:48:46.708Z,12.75
2022-11-24T16:51:14.734Z,12.73
2022-11-24T16:53:42.750Z,11.27
2022-11-24T16:56:10.318Z,14.02
2022-11-24T16:58:38.808Z,13.40
2022-11-24T17:01:08.218Z,13.73
2022-11-24T17:03:38.469Z,13.18
2022-11-24T17:06:11.810Z,14.30
2022-11-24T17:08:40.362Z,13.73
2022-11-24T17:11:09.477Z,15.02
2022-11-24T17:13:37.294Z,13.63
2022-11-24T17:16:06.272Z,13.75
2022-11-24T17:18:33.770Z,14.52
2022-11-24T17:21:07.658Z,13.13
2022-11-24T17:23:36.993Z,14.07
2022-11-24T17:26:06.773Z,15.10
2022-11-24T17:28:35.058Z,16.30
2022-11-24T17:31:21.477Z,14.65
2022-11-24T17:33:53.315Z,15.90
2022-11-24T17:36:21.008Z,18.48
2022-11-24T17:38:51.139Z,17.73
2022-11-24T17:41:19.509Z,20.67
2022-11-24T17:43:55.669Z,19.13
2022-11-24T17:46:26.883Z,20.08
2022-11-24T17:48:54.849Z,21.30
2022-11-24T17:51:24.963Z,20.25
2022-11-24T17:53:54.232Z,21.67
2022-11-24T17:56:23.722Z,18.75
2022-11-24T17:58:59.225Z,20.60
2022-11-24T18:01:28.476Z,19.75
2022-11-24T18:03:55.994Z,18.10
2022-11-24T18:06:26.046Z,17.92
2022-11-24T18:08:54.076Z,18.10
2022-11-24T18:11:30.912Z,21.67
2022-11-24T18:14:01.928Z,20.17
2022-11-24T18:16:31.622Z,19.05
2022-11-24T18:19:10.115Z,20.92
2022-11-24T18:21:41.779Z,19.50
2022-11-24T18:24:12.943Z,20.30
2022-11-24T18:26:41.477Z,23.15
2022-11-24T18:29:09.978Z,19.88
2022-11-24T18:31:38.180Z,17.58
2022-11-24T18:34:06.199Z,17.48
2022-11-24T18:36:34.821Z,18.50
2022-11-24T18:39:04.219Z,20.80
2022-11-24T18:41:31.891Z,23.77
2022-11-24T18:44:02.320Z,23.88
2022-11-24T18:46:29.596Z,25.42
2022-11-24T18:48:56.761Z,27.92
2022-11-24T18:51:23.874Z,24.20
2022-11-24T18:53:58.097Z,21.63
2022-11-24T18:56:26.177Z,21.25
2022-11-24T18:58:54.981Z,23.05
2022-11-24T19:01:25.154Z,23.40
2022-11-24T19:03:55.007Z,24.23
2022-11-24T19:06:32.109Z,22.10
2022-11-24T19:09:02.306Z,23.65
2022-11-24T19:11:33.696Z,22.10
2022-11-24T19:14:04.413Z,21.70
2022-11-24T19:16:32.238Z,19.40
2022-11-24T19:19:00.098Z,20.63
2022-11-24T19:21:30.110Z,19.25
2022-11-24T19:24:02.876Z,19.98
2022-11-24T19:26:32.062Z,20.58
2022-11-24T19:28:59.290Z,21.05
2022-11-24T19:31:26.689Z,19.85
2022-11-24T19:33:54.647Z,21.17
2022-11-24T19:36:22.734Z,20.25
2022-11-24T19:38:52.134Z,22.30
2022-11-24T19:41:21.260Z,21.83
2022-11-24T19:43:48.556Z,22.00
2022-11-24T19:46:18.013Z,21.58
2022-11-24T19:48:50.716Z,21.13
2022-11-24T19:51:20.944Z,20.58
2022-11-24T19:53:48.407Z,21.00
2022-11-24T19:56:24.043Z,22.02
2022-11-24T19:58:52.986Z,24.90
2022-11-24T20:01:25.677Z,25.25
2022-11-24T20:04:00.896Z,24.75
2022-11-24T20:06:33.345Z,23.60
2022-11-24T20:09:01.141Z,25.65
2022-11-24T20:11:29.134Z,24.20
2022-11-24T20:13:56.954Z,23.15
2022-11-24T20:16:29.931Z,22.38
2022-11-24T20:19:05.586Z,22.02
2022-11-24T20:21:34.467Z,21.23
2022-11-24T20:24:24.616Z,23.00
2022-11-24T20:26:56.230Z,24.85
2022-11-24T20:29:23.433Z,22.83
2022-11-24T20:31:53.477Z,22.55
2022-11-24T20:34:21.449Z,23.02
2022-11-24T20:36:49.357Z,23.42
2022-11-24T20:39:22.237Z,23.60
2022-11-24T20:41:49.488Z,24.00
2022-11-24T20:44:18.849Z,23.73
2022-11-24T20:46:47.792Z,22.52
2022-11-24T20:49:18.081Z,33.47
2022-11-24T20:51:47.743Z,36.35
2022-11-24T20:54:17.132Z,38.25
2022-11-24T20:56:46.325Z,39.55
2022-11-24T20:59:21.254Z,53.13
2022-11-24T21:01:50.058Z,39.58
2022-11-24T21:04:21.000Z,32.45
2022-11-24T21:06:48.593Z,33.67
2022-11-24T21:09:16.081Z,30.17
2022-11-24T21:11:43.184Z,33.88
2022-11-24T21:14:11.147Z,32.78
2022-11-24T21:16:40.354Z,30.17
2022-11-24T21:19:11.677Z,28.52
2022-11-24T21:21:40.957Z,27.30
2022-11-24T21:24:16.624Z,26.75
2022-11-24T21:26:47.634Z,25.75
2022-11-24T21:29:17.327Z,27.10
2022-11-24T21:31:44.523Z,23.30
2022-11-24T21:34:15.935Z,22.58
2022-11-24T21:36:44.976Z,23.58
2022-11-24T21:39:13.908Z,22.10
2022-11-24T21:41:41.897Z,17.67
2022-11-24T21:44:11.403Z,18.70
2022-11-24T21:46:44.155Z,19.88
2022-11-24T21:49:15.070Z,17.17
2022-11-24T21:51:42.222Z,17.85
2022-11-24T21:54:09.389Z,22.88
2022-11-24T21:56:36.520Z,18.20
2022-11-24T21:59:03.612Z,13.95
2022-11-24T22:01:30.805Z,15.98
2022-11-24T22:03:57.998Z,9.13
2022-11-24T22:06:25.196Z,8.05
2022-11-24T22:08:52.408Z,8.35
2022-11-24T22:11:22.054Z,10.40
2022-11-24T22:13:50.207Z,9.57
2022-11-24T22:16:20.086Z,8.70
2022-11-24T22:18:47.308Z,10.02
2022-11-24T22:21:16.941Z,9.20
2022-11-24T22:23:44.288Z,7.38
2022-11-24T22:26:12.709Z,8.73
2022-11-24T22:28:40.449Z,9.27
2022-11-24T22:31:13.727Z,11.00
2022-11-24T22:33:41.227Z,7.72
2022-11-24T22:36:09.764Z,7.88
2022-11-24T22:38:38.528Z,6.85
2022-11-24T22:41:17.212Z,7.10
2022-11-24T22:43:45.817Z,7.65
2022-11-24T22:46:15.745Z,7.50
2022-11-24T22:48:43.455Z,14.02
2022-11-24T22:51:13.768Z,16.15
2022-11-24T22:53:41.806Z,15.32
2022-11-24T22:56:12.182Z,12.45
2022-11-24T22:58:40.126Z,9.77
2022-11-24T23:01:16.675Z,10.60
2022-11-24T23:03:44.151Z,10.07
2022-11-24T23:06:14.040Z,11.52
2022-11-24T23:08:41.734Z,12.82
2022-11-24T23:11:12.098Z,14.93
2022-11-24T23:13:39.775Z,14.38
2022-11-24T23:16:13.021Z,13.50
2022-11-24T23:18:40.795Z,14.77
2022-11-24T23:21:14.778Z,12.38
2022-11-24T23:23:42.481Z,12.95
2022-11-24T23:26:12.289Z,13.05
2022-11-24T23:28:39.769Z,13.63
2022-11-24T23:31:09.129Z,15.20
2022-11-24T23:33:36.785Z,15.07
2022-11-24T23:36:09.591Z,15.95
2022-11-24T23:38:37.032Z,14.55
2022-11-24T23:41:06.753Z,14.48
2022-11-24T23:43:35.102Z,15.93
2022-11-24T23:46:03.294Z,16.08
2022-11-24T23:48:30.664Z,18.13
2022-11-24T23:50:58.492Z,18.65
2022-11-24T23:53:25.578Z,18.00
2022-11-24T23:55:55.540Z,17.48
2022-11-24T23:58:23.020Z,15.02
